ESPE

Vidsel Air Base Airport

Vidsel, Sweden
METAR ESPE 220520Z AUTO 01006KT 9999 NCD 10/06 Q1001
Observed Flight Rules
Jun-22 @ 05:20 UTC (27 minutes ago) Visual Flight Rules
Wind Visibility Clouds
10° at 6 knots 10,000+ meters
  • Clear skies
Temperatures Readings
Current 10°C / 50°F
Dewpoint 6°C / 43°F
Humidity 76%
Altimeter 29.56" Hg
Pressure 1001 hPa
Elevation 182
METAR ESPE 220520Z AUTO 01006KT 9999 NCD 10/06 Q1001
Observed Flight Rules
Jun-22 @ 05:20 UTC
(27 minutes ago)
VFR
Wind Visibility
10° at 6 knots 10,000+ meters
Clouds
  • Clear skies
Temperature Dewpoint
10°C / 50°F 6°C / 43°F
Humidity Altimeter Pressure
76% 29.56" Hg 1001 hPa